Time;durP1;ratioP1;P1;durP2;ratioP2;P2;SDS_P1;SDS_P2;PMS_P1;PMS_P2;Temp;Humidity;BMP_temperature;BMP_pressure;BME280_temperature;BME280_humidity;BME280_pressure;Samples;Min_cycle;Max_cycle;Signal;HPM_P1;HPM_P2
2022/11/02 00:00:45;;;;;;;3.27;1.87;;;10.00;98.30;;;;;;4228746;28;20178;-70
2022/11/02 00:02:46;;;;;;;4.70;1.30;;;9.90;98.40;;;;;;4212573;28;20233;-69
2022/11/02 00:04:47;;;;;;;5.07;1.20;;;10.00;98.10;;;;;;4213555;28;20187;-69
2022/11/02 00:06:47;;;;;;;2.23;1.10;;;10.10;97.70;;;;;;4213782;28;20217;-71
2022/11/02 00:08:48;;;;;;;3.33;1.20;;;10.20;97.30;;;;;;4214168;28;20618;-70
2022/11/02 00:10:49;;;;;;;2.67;1.20;;;10.10;97.40;;;;;;4212924;28;20175;-69
2022/11/02 00:12:50;;;;;;;4.13;0.90;;;10.10;97.60;;;;;;4214024;28;20187;-70
2022/11/02 00:14:51;;;;;;;6.60;3.47;;;10.10;97.40;;;;;;4229228;28;20221;-69
2022/11/02 00:16:52;;;;;;;3.87;1.20;;;10.10;97.10;;;;;;4229230;28;20186;-69
2022/11/02 00:18:55;;;;;;;2.37;1.20;;;10.00;97.70;;;;;;4212229;28;20210;-70
2022/11/02 00:20:56;;;;;;;4.47;1.23;;;10.00;97.90;;;;;;4213017;28;20174;-70
2022/11/02 00:22:59;;;;;;;4.70;4.30;;;10.00;97.90;;;;;;4228933;28;20244;-71
2022/11/02 00:25:02;;;;;;;5.13;2.03;;;9.90;97.80;;;;;;4211595;28;20218;-71
2022/11/02 00:27:03;;;;;;;6.83;1.60;;;9.90;97.90;;;;;;4211871;28;20191;-70
2022/11/02 00:29:05;;;;;;;2.10;1.20;;;9.70;98.30;;;;;;4213510;28;20552;-71
2022/11/02 00:31:05;;;;;;;5.30;2.57;;;9.80;98.30;;;;;;4212930;28;20175;-71
2022/11/02 00:33:06;;;;;;;8.57;1.63;;;9.70;98.10;;;;;;4218919;28;20902;-70
2022/11/02 00:35:09;;;;;;;8.03;2.97;;;9.60;98.60;;;;;;4230268;28;20190;-70
2022/11/02 00:37:09;;;;;;;5.30;1.20;;;9.60;98.10;;;;;;4230222;28;20239;-70
2022/11/02 00:39:10;;;;;;;3.93;1.10;;;9.70;98.20;;;;;;4230067;28;20198;-71
2022/11/02 00:41:11;;;;;;;4.10;1.07;;;9.70;97.90;;;;;;4229571;28;20182;-71
2022/11/02 00:43:12;;;;;;;5.23;1.30;;;9.70;97.50;;;;;;4233878;28;20201;-72
2022/11/02 00:45:13;;;;;;;5.07;1.10;;;9.80;97.40;;;;;;4241584;28;20217;-71
2022/11/02 00:47:13;;;;;;;2.30;1.10;;;9.80;97.50;;;;;;4231514;28;20669;-70
2022/11/02 00:49:14;;;;;;;4.83;1.37;;;9.80;97.50;;;;;;4232426;28;20205;-71
2022/11/02 00:51:15;;;;;;;4.33;1.13;;;9.80;97.20;;;;;;4231390;28;20667;-71
2022/11/02 00:53:15;;;;;;;10.03;1.50;;;9.90;97.00;;;;;;4214743;28;20616;-71
2022/11/02 00:55:16;;;;;;;4.40;1.10;;;9.90;96.80;;;;;;4233147;28;20216;-70
2022/11/02 00:57:17;;;;;;;3.73;1.10;;;9.90;96.90;;;;;;4215161;28;20195;-70
2022/11/02 00:59:18;;;;;;;3.97;1.30;;;9.80;97.10;;;;;;4233424;28;20288;-71
2022/11/02 01:01:18;;;;;;;7.63;1.60;;;9.70;97.40;;;;;;4231545;28;20181;-71
2022/11/02 01:03:19;;;;;;;3.43;1.30;;;9.60;97.80;;;;;;4232455;28;20182;-71
2022/11/02 01:05:20;;;;;;;3.67;1.17;;;9.60;97.60;;;;;;4232736;28;20216;-71
2022/11/02 01:07:20;;;;;;;4.80;1.50;;;9.50;97.90;;;;;;4231946;28;20189;-72
2022/11/02 01:09:21;;;;;;;3.70;1.20;;;9.40;98.40;;;;;;4229766;28;20216;-70
2022/11/02 01:11:23;;;;;;;7.20;1.37;;;9.40;98.50;;;;;;4230739;28;20527;-70
2022/11/02 01:13:23;;;;;;;3.73;1.73;;;9.30;98.90;;;;;;4229685;28;20178;-71
2022/11/02 01:15:24;;;;;;;5.70;1.50;;;9.10;99.60;;;;;;4230458;28;20818;-70
2022/11/02 01:17:25;;;;;;;2.43;1.00;;;9.00;99.90;;;;;;4230402;28;20178;-72
2022/11/02 01:19:26;;;;;;;6.20;1.40;;;9.00;99.90;;;;;;4228280;28;20181;-71
2022/11/02 01:21:27;;;;;;;3.17;1.20;;;8.80;99.90;;;;;;4228117;28;20196;-70
2022/11/02 01:23:32;;;;;;;4.10;1.37;;;8.80;99.90;;;;;;4229696;28;20188;-70
2022/11/02 01:25:32;;;;;;;4.10;1.27;;;8.80;99.90;;;;;;4228396;28;20208;-71
2022/11/02 01:27:33;;;;;;;7.70;2.00;;;8.70;99.90;;;;;;4229650;28;20187;-71
2022/11/02 01:29:34;;;;;;;3.40;1.30;;;8.60;99.90;;;;;;4228318;28;20176;-71
2022/11/02 01:31:34;;;;;;;4.43;1.70;;;8.50;99.90;;;;;;4228150;28;20855;-70
2022/11/02 01:33:36;;;;;;;3.00;1.13;;;8.50;99.90;;;;;;4229746;28;20183;-71
2022/11/02 01:35:36;;;;;;;5.90;1.30;;;8.40;99.90;;;;;;4228276;28;20194;-71
2022/11/02 01:37:37;;;;;;;6.97;2.17;;;8.40;99.90;;;;;;4215129;28;20665;-71
2022/11/02 01:39:38;;;;;;;3.87;1.37;;;8.20;99.90;;;;;;4213034;28;20595;-71
2022/11/02 01:41:39;;;;;;;3.10;1.20;;;8.20;99.90;;;;;;4212287;28;20187;-71
2022/11/02 01:43:45;;;;;;;4.53;1.20;;;8.20;99.90;;;;;;4211501;28;20303;-72
2022/11/02 01:45:47;;;;;;;5.47;1.50;;;8.20;99.90;;;;;;4212765;28;20458;-71
2022/11/02 01:47:48;;;;;;;4.00;1.17;;;8.20;99.90;;;;;;4211391;28;20449;-71
2022/11/02 01:50:12;;;;;;;6.20;1.63;;;8.10;99.90;;;;;;4212964;28;20791;-68
2022/11/02 01:52:23;;;;;;;3.67;1.30;;;8.00;99.90;;;;;;4211499;28;20255;-71
2022/11/02 01:54:29;;;;;;;2.60;1.40;;;8.00;99.90;;;;;;4212897;28;20913;-70
2022/11/02 01:56:32;;;;;;;5.27;1.30;;;7.90;99.90;;;;;;4211509;28;20406;-70
2022/11/02 01:58:34;;;;;;;7.37;1.47;;;7.70;99.90;;;;;;4212660;28;20441;-70
2022/11/02 02:00:36;;;;;;;3.23;1.20;;;7.70;99.90;;;;;;4210600;28;20940;-68
2022/11/02 02:03:11;;;;;;;4.57;1.40;;;7.70;99.90;;;;;;4212444;28;20447;-69
2022/11/02 02:05:13;;;;;;;3.50;1.00;;;7.70;99.90;;;;;;4211463;28;20468;-72
2022/11/02 02:07:15;;;;;;;4.27;1.33;;;7.60;99.90;;;;;;4211321;28;20482;-70
2022/11/02 02:09:16;;;;;;;2.63;1.30;;;7.60;99.90;;;;;;4211517;28;20473;-69
2022/11/02 02:11:31;;;;;;;4.57;1.80;;;7.60;99.90;;;;;;4210748;28;20482;-70
2022/11/02 02:13:32;;;;;;;3.60;1.23;;;7.50;99.90;;;;;;4211293;28;20423;-69
2022/11/02 02:15:51;;;;;;;3.77;1.57;;;7.50;99.90;;;;;;4211224;28;20520;-70
2022/11/02 02:18:02;;;;;;;5.03;1.90;;;7.50;99.90;;;;;;4211018;28;20222;-70
2022/11/02 02:20:27;;;;;;;4.03;1.37;;;7.40;99.90;;;;;;4211204;28;20413;-69
2022/11/02 02:23:12;;;;;;;5.77;1.30;;;7.40;99.90;;;;;;4212294;28;20421;-70
2022/11/02 02:26:04;;;;;;;2.67;1.30;;;7.40;99.90;;;;;;4185837;28;20480;-70
2022/11/02 02:28:20;;;;;;;6.60;1.43;;;7.40;99.90;;;;;;4212269;28;20433;-71
2022/11/02 02:30:22;;;;;;;1.93;1.43;;;7.30;99.90;;;;;;4211116;28;20401;-71
2022/11/02 02:32:31;;;;;;;3.23;1.30;;;7.20;99.90;;;;;;4227173;28;20461;-70
2022/11/02 02:34:44;;;;;;;3.83;1.60;;;7.20;99.90;;;;;;4229084;28;20837;-69
2022/11/02 02:37:05;;;;;;;8.00;2.43;;;7.30;99.90;;;;;;4229225;28;20416;-69
2022/11/02 02:39:32;;;;;;;5.73;1.60;;;7.20;99.90;;;;;;4227922;28;20531;-69
2022/11/02 02:41:50;;;;;;;2.60;1.40;;;7.10;99.90;;;;;;4228762;28;20423;-69
2022/11/02 02:43:56;;;;;;;4.20;1.57;;;7.10;99.90;;;;;;4229653;28;20405;-69
2022/11/02 02:46:18;;;;;;;2.60;1.57;;;7.00;99.90;;;;;;4232158;28;20463;-69
2022/11/02 02:48:23;;;;;;;3.37;1.60;;;7.00;99.90;;;;;;4228747;28;20526;-70
2022/11/02 02:50:40;;;;;;;5.97;1.60;;;7.00;99.90;;;;;;4230679;28;20469;-69
2022/11/02 02:52:43;;;;;;;2.93;1.60;;;6.90;99.90;;;;;;4232338;28;20722;-70
2022/11/02 02:54:45;;;;;;;1.93;1.47;;;6.90;99.90;;;;;;4231123;28;20419;-70
2022/11/02 02:56:57;;;;;;;4.27;1.50;;;6.90;99.90;;;;;;4197456;28;20456;-70
2022/11/02 02:59:03;;;;;;;5.67;1.80;;;6.90;99.90;;;;;;4231239;28;20479;-70
2022/11/02 03:01:05;;;;;;;8.00;1.60;;;6.90;99.90;;;;;;4231580;28;20440;-69
2022/11/02 03:03:07;;;;;;;4.20;1.43;;;6.80;99.90;;;;;;4230858;28;20420;-69
2022/11/02 03:05:33;;;;;;;5.90;1.70;;;6.70;99.90;;;;;;4230872;28;20973;-71
2022/11/02 03:07:34;;;;;;;6.77;1.80;;;6.70;99.90;;;;;;4230438;28;20436;-70
2022/11/02 03:09:50;;;;;;;5.10;1.50;;;6.90;99.90;;;;;;4230612;28;20431;-70
2022/11/02 03:12:32;;;;;;;4.73;1.40;;;6.90;99.90;;;;;;4229983;28;20178;-70
2022/11/02 03:14:59;;;;;;;2.90;1.43;;;7.00;99.90;;;;;;4216400;28;20440;-71
2022/11/02 03:17:21;;;;;;;2.70;1.33;;;7.20;99.90;;;;;;4224603;28;20996;-70
2022/11/02 03:20:19;;;;;;;6.87;1.30;;;7.20;99.90;;;;;;4230246;28;21026;-69
2022/11/02 03:22:30;;;;;;;2.40;1.70;;;7.60;99.90;;;;;;4162688;28;20422;-70
2022/11/02 03:24:40;;;;;;;3.33;1.40;;;7.60;99.90;;;;;;4221435;28;20455;-69
2022/11/02 03:26:56;;;;;;;7.90;1.60;;;7.80;99.90;;;;;;4230303;28;20460;-69
2022/11/02 03:29:07;;;;;;;3.87;1.40;;;8.20;99.90;;;;;;4231706;28;20945;-70
2022/11/02 03:31:18;;;;;;;15.73;2.43;;;8.20;99.90;;;;;;4221496;28;20427;-70
2022/11/02 03:34:18;;;;;;;2.53;1.10;;;8.20;99.90;;;;;;4213393;28;20257;-69
2022/11/02 03:36:32;;;;;;;7.33;1.80;;;8.20;99.90;;;;;;4200681;28;20202;-70
2022/11/02 03:38:51;;;;;;;4.13;1.40;;;8.40;99.90;;;;;;4214426;28;20209;-69
2022/11/02 03:40:54;;;;;;;5.50;1.20;;;8.60;99.90;;;;;;4209864;28;20184;-72
2022/11/02 03:42:56;;;;;;;7.70;1.47;;;8.70;99.90;;;;;;4229355;28;20188;-70
2022/11/02 03:45:03;;;;;;;7.20;1.40;;;8.80;99.90;;;;;;4231095;28;20255;-70
2022/11/02 03:47:08;;;;;;;5.93;1.60;;;9.00;99.90;;;;;;4230213;28;20169;-69
2022/11/02 03:49:17;;;;;;;5.70;1.23;;;8.70;99.90;;;;;;4230187;28;20236;-70
2022/11/02 03:51:21;;;;;;;2.80;1.20;;;8.80;99.90;;;;;;4229106;28;20173;-70
2022/11/02 03:53:43;;;;;;;5.23;1.30;;;9.00;99.60;;;;;;4230043;28;20522;-69
2022/11/02 03:56:18;;;;;;;5.90;1.30;;;9.00;99.70;;;;;;4229717;28;20236;-70
2022/11/02 03:58:19;;;;;;;3.60;1.30;;;9.10;98.90;;;;;;4229555;28;20619;-70
2022/11/02 04:00:23;;;;;;;3.27;1.10;;;9.10;98.90;;;;;;4246068;27;20203;-70
2022/11/02 04:02:24;;;;;;;4.70;1.23;;;8.90;99.20;;;;;;4230642;28;20559;-69
2022/11/02 04:04:25;;;;;;;4.80;2.10;;;8.90;99.30;;;;;;4246553;27;20184;-69
2022/11/02 04:06:26;;;;;;;7.53;1.17;;;8.80;99.50;;;;;;4230649;27;20206;-69
2022/11/02 04:08:45;;;;;;;7.43;2.03;;;8.70;99.90;;;;;;4246309;27;20294;-68
2022/11/02 04:15:27;;;;;;;4.17;1.60;;;8.50;99.90;;;;;;4244213;27;20189;-69
2022/11/02 04:19:49;;;;;;;6.30;1.33;;;8.50;99.90;;;;;;4229429;28;20260;-72
2022/11/02 04:26:28;;;;;;;6.20;1.33;;;8.40;99.90;;;;;;4230600;28;20211;-70
2022/11/02 04:28:29;;;;;;;4.77;1.50;;;8.40;99.90;;;;;;4229922;28;20579;-69
2022/11/02 04:30:29;;;;;;;4.00;1.37;;;8.40;99.90;;;;;;4228724;28;20250;-70
2022/11/02 04:34:59;;;;;;;4.80;1.87;;;8.80;99.90;;;;;;4229505;28;20173;-69
2022/11/02 04:37:00;;;;;;;9.10;1.63;;;8.60;99.90;;;;;;4230462;28;20181;-70
2022/11/02 04:39:01;;;;;;;2.30;0.93;;;8.60;99.90;;;;;;4229883;28;20210;-69
2022/11/02 04:43:20;;;;;;;4.97;1.30;;;8.90;99.50;;;;;;4230335;28;20177;-68
2022/11/02 04:45:21;;;;;;;3.10;1.20;;;9.20;98.70;;;;;;4236601;28;20204;-70
2022/11/02 04:47:22;;;;;;;7.53;1.50;;;9.10;98.60;;;;;;4241026;28;20259;-69
2022/11/02 04:49:22;;;;;;;8.17;2.73;;;9.00;98.80;;;;;;4229422;28;20198;-69
2022/11/02 04:51:25;;;;;;;5.43;1.57;;;9.10;98.60;;;;;;4230157;28;20208;-69
2022/11/02 04:53:26;;;;;;;8.30;1.50;;;9.20;98.90;;;;;;4229677;28;20270;-69
2022/11/02 04:55:28;;;;;;;8.30;1.53;;;9.20;98.70;;;;;;4230852;28;20186;-69
2022/11/02 04:57:28;;;;;;;4.47;3.00;;;9.10;98.90;;;;;;4246257;27;20589;-69
2022/11/02 04:59:29;;;;;;;4.27;1.33;;;9.20;98.60;;;;;;4230924;28;20271;-69
2022/11/02 05:01:30;;;;;;;7.30;3.50;;;9.10;98.90;;;;;;4230288;28;20182;-70
2022/11/02 05:03:30;;;;;;;6.60;1.40;;;9.00;99.10;;;;;;4245492;27;20197;-72
2022/11/02 05:05:31;;;;;;;5.80;2.13;;;8.90;99.90;;;;;;4230443;28;20222;-71
2022/11/02 05:07:32;;;;;;;7.67;1.63;;;8.80;99.90;;;;;;4246194;27;20212;-70
2022/11/02 05:09:32;;;;;;;6.87;1.67;;;8.70;99.90;;;;;;4229156;28;20255;-72
2022/11/02 05:11:33;;;;;;;5.00;1.70;;;8.60;99.90;;;;;;4244652;27;20239;-70
2022/11/02 05:13:35;;;;;;;6.93;1.97;;;8.60;99.90;;;;;;4229967;28;20189;-71
2022/11/02 05:15:38;;;;;;;7.07;2.10;;;8.70;99.90;;;;;;4228802;28;20838;-69
2022/11/02 05:17:39;;;;;;;3.03;1.43;;;8.60;99.90;;;;;;4230035;28;20189;-68
2022/11/02 05:19:40;;;;;;;7.93;1.30;;;8.60;99.90;;;;;;4230275;28;20212;-70
2022/11/02 05:21:40;;;;;;;4.60;1.70;;;8.60;99.90;;;;;;4244906;27;20188;-70
2022/11/02 05:23:41;;;;;;;7.90;1.97;;;8.60;99.90;;;;;;4229603;28;20202;-70
2022/11/02 05:25:42;;;;;;;4.30;1.63;;;8.50;99.90;;;;;;4229601;28;20221;-70
2022/11/02 05:27:42;;;;;;;4.87;1.40;;;8.50;99.90;;;;;;4229052;28;20191;-70
2022/11/02 05:29:43;;;;;;;4.73;1.30;;;8.30;99.90;;;;;;4229342;28;20573;-71
2022/11/02 05:31:44;;;;;;;6.03;1.60;;;8.40;99.90;;;;;;4227095;28;20185;-70
2022/11/02 05:33:44;;;;;;;9.20;1.70;;;8.40;99.90;;;;;;4229198;28;20215;-70
2022/11/02 05:35:45;;;;;;;4.90;1.60;;;8.40;99.90;;;;;;4229175;28;20191;-71
2022/11/02 05:37:46;;;;;;;5.67;1.47;;;8.30;99.90;;;;;;4219897;28;20179;-70
2022/11/02 05:39:46;;;;;;;11.43;3.30;;;8.30;99.90;;;;;;4212523;28;20970;-70
2022/11/02 05:41:47;;;;;;;9.60;3.60;;;8.40;99.90;;;;;;4211812;28;20567;-72
2022/11/02 05:43:48;;;;;;;9.87;3.50;;;8.40;99.90;;;;;;4221875;28;20193;-68
2022/11/02 05:45:57;;;;;;;7.03;2.87;;;8.30;99.90;;;;;;4244946;28;20263;-70
2022/11/02 05:48:07;;;;;;;4.80;1.60;;;8.40;99.90;;;;;;4227517;28;20218;-71
2022/11/02 05:50:09;;;;;;;2.37;2.10;;;8.40;99.90;;;;;;4228744;28;20299;-71
2022/11/02 05:52:10;;;;;;;3.40;1.70;;;8.40;99.90;;;;;;4228521;28;20180;-70
2022/11/02 05:54:11;;;;;;;4.33;1.90;;;8.40;99.90;;;;;;4228816;28;20176;-70
2022/11/02 05:56:13;;;;;;;5.90;2.10;;;8.40;99.90;;;;;;4228817;28;20655;-71
2022/11/02 05:58:14;;;;;;;6.57;2.00;;;8.50;99.90;;;;;;4227572;28;20210;-71
2022/11/02 06:00:14;;;;;;;4.57;1.67;;;8.40;99.90;;;;;;4228377;28;20213;-71
2022/11/02 06:02:15;;;;;;;6.73;1.93;;;8.40;99.90;;;;;;4228782;28;20287;-70
2022/11/02 06:04:16;;;;;;;5.03;2.10;;;8.40;99.90;;;;;;4228847;28;20258;-70
2022/11/02 06:06:16;;;;;;;5.73;1.90;;;8.50;99.90;;;;;;4228859;28;20202;-70
2022/11/02 06:08:17;;;;;;;4.53;2.07;;;8.60;99.90;;;;;;4227406;28;20201;-70
2022/11/02 06:10:18;;;;;;;6.93;2.50;;;8.50;99.90;;;;;;4243787;28;20184;-72
2022/11/02 06:12:18;;;;;;;15.80;7.63;;;8.50;99.90;;;;;;4228873;28;20182;-70
2022/11/02 06:14:19;;;;;;;6.97;1.70;;;8.50;99.90;;;;;;4227423;28;20190;-70
2022/11/02 06:16:20;;;;;;;3.27;1.20;;;8.70;99.90;;;;;;4228664;28;20199;-70
2022/11/02 06:18:20;;;;;;;8.03;1.87;;;8.60;99.90;;;;;;4228895;28;20204;-71
2022/11/02 06:20:22;;;;;;;6.27;2.50;;;8.60;99.90;;;;;;4228007;28;20213;-70
2022/11/02 06:22:23;;;;;;;6.87;1.60;;;8.60;99.90;;;;;;4227504;28;20266;-70
2022/11/02 06:24:23;;;;;;;6.70;1.30;;;8.60;99.90;;;;;;4230571;28;20201;-70
2022/11/02 06:26:24;;;;;;;5.27;1.40;;;8.60;99.90;;;;;;4231804;28;20219;-70
2022/11/02 06:28:26;;;;;;;5.37;1.50;;;8.70;99.90;;;;;;4231012;28;20202;-70
2022/11/02 06:30:27;;;;;;;2.70;1.23;;;8.70;99.90;;;;;;4229638;28;20185;-70
2022/11/02 06:32:28;;;;;;;3.53;1.27;;;8.80;99.90;;;;;;4231855;28;20554;-70
2022/11/02 06:34:28;;;;;;;8.43;1.70;;;8.80;99.90;;;;;;4230467;28;20197;-71
2022/11/02 06:36:29;;;;;;;4.27;1.93;;;8.90;99.90;;;;;;4230461;28;20218;-71
2022/11/02 06:38:29;;;;;;;4.03;1.80;;;8.90;99.90;;;;;;4231798;28;20202;-70
2022/11/02 06:40:30;;;;;;;6.20;1.53;;;8.90;99.90;;;;;;4231378;28;20196;-70
2022/11/02 06:42:31;;;;;;;2.73;1.87;;;9.00;99.90;;;;;;4231628;28;20243;-71
2022/11/02 06:44:32;;;;;;;3.87;1.30;;;9.10;99.70;;;;;;4231697;28;20238;-70
2022/11/02 06:46:32;;;;;;;5.40;1.33;;;9.10;99.90;;;;;;4238304;28;20217;-71
2022/11/02 06:48:33;;;;;;;3.60;1.60;;;9.10;99.90;;;;;;4245245;28;20205;-71
2022/11/02 06:50:34;;;;;;;4.47;1.57;;;9.20;99.90;;;;;;4232084;28;20185;-71
2022/11/02 06:52:41;;;;;;;3.90;1.10;;;9.30;99.80;;;;;;4230969;28;20190;-68
2022/11/02 06:54:42;;;;;;;3.27;2.57;;;9.30;99.90;;;;;;4230647;28;20181;-70
2022/11/02 06:56:42;;;;;;;5.43;3.93;;;9.30;99.90;;;;;;4232397;28;20185;-70
2022/11/02 06:58:43;;;;;;;3.10;1.20;;;9.40;99.90;;;;;;4230508;28;20209;-71
2022/11/02 07:00:44;;;;;;;5.03;1.80;;;9.50;99.70;;;;;;4213381;28;20968;-70
2022/11/02 07:02:44;;;;;;;4.50;2.53;;;9.50;99.60;;;;;;4231832;28;20197;-71
2022/11/02 07:04:45;;;;;;;5.47;1.90;;;9.60;99.30;;;;;;4213446;28;20187;-71
2022/11/02 07:06:46;;;;;;;4.57;1.70;;;9.60;99.50;;;;;;4231722;28;20301;-71
2022/11/02 07:08:46;;;;;;;6.40;1.70;;;9.60;99.60;;;;;;4231789;28;20209;-70
2022/11/02 07:10:48;;;;;;;4.37;2.87;;;9.70;99.50;;;;;;4231053;28;20234;-72
2022/11/02 07:12:53;;;;;;;7.83;2.37;;;9.80;98.80;;;;;;4230598;28;20257;-72
2022/11/02 07:14:53;;;;;;;5.23;1.57;;;9.90;98.70;;;;;;4247216;27;20186;-70
2022/11/02 07:16:55;;;;;;;4.33;1.70;;;10.00;98.70;;;;;;4231545;28;20213;-70
2022/11/02 07:18:56;;;;;;;3.50;1.30;;;10.10;97.90;;;;;;4230314;28;20210;-71
2022/11/02 07:21:01;;;;;;;6.23;5.63;;;10.20;98.10;;;;;;4230724;28;20214;-70
2022/11/02 07:23:03;;;;;;;5.23;1.97;;;10.20;98.00;;;;;;4231066;28;20182;-71
2022/11/02 07:25:05;;;;;;;4.53;2.60;;;10.30;98.50;;;;;;4230939;28;20568;-70
2022/11/02 07:27:06;;;;;;;5.50;4.03;;;10.20;98.50;;;;;;4229861;28;20186;-71
2022/11/02 07:29:06;;;;;;;5.77;1.77;;;10.20;98.80;;;;;;4231129;28;20254;-71
2022/11/02 07:31:07;;;;;;;4.60;3.00;;;10.20;98.70;;;;;;4230540;28;20190;-70
2022/11/02 07:33:08;;;;;;;5.40;5.03;;;10.10;99.20;;;;;;4227100;27;20187;-72
2022/11/02 07:35:11;;;;;;;4.07;1.20;;;10.10;99.70;;;;;;4246034;27;20197;-71
2022/11/02 07:37:11;;;;;;;3.77;1.40;;;10.10;99.90;;;;;;4229449;28;20178;-71
2022/11/02 07:39:12;;;;;;;3.83;2.70;;;10.20;99.90;;;;;;4230895;28;20933;-71
2022/11/02 07:41:13;;;;;;;3.57;1.70;;;10.20;99.90;;;;;;4245774;27;20596;-70
2022/11/02 07:43:13;;;;;;;5.70;4.20;;;10.20;99.90;;;;;;4230885;28;20178;-70
2022/11/02 07:45:14;;;;;;;3.27;1.63;;;10.20;99.90;;;;;;4246516;27;20675;-70
2022/11/02 07:47:15;;;;;;;6.23;2.07;;;10.30;99.90;;;;;;4230888;28;20619;-70
2022/11/02 07:49:16;;;;;;;5.13;1.67;;;10.40;99.90;;;;;;4230971;28;20251;-70
2022/11/02 07:51:16;;;;;;;7.10;1.33;;;10.50;99.90;;;;;;4230117;28;20276;-71
2022/11/02 07:53:17;;;;;;;5.60;4.73;;;10.60;99.90;;;;;;4229316;28;20182;-70
2022/11/02 07:55:22;;;;;;;5.80;3.07;;;10.70;99.20;;;;;;4230763;28;20242;-69
2022/11/02 07:57:22;;;;;;;4.40;1.97;;;10.70;99.60;;;;;;4229313;28;20696;-69
2022/11/02 07:59:23;;;;;;;5.83;1.77;;;10.60;99.90;;;;;;4230541;28;20221;-69
2022/11/02 08:01:24;;;;;;;2.80;1.20;;;10.50;99.90;;;;;;4229870;28;20189;-69
2022/11/02 08:03:25;;;;;;;6.63;1.70;;;10.40;99.90;;;;;;4230526;28;20178;-71
2022/11/02 08:05:27;;;;;;;5.03;2.30;;;10.30;99.90;;;;;;4246240;27;20244;-69
2022/11/02 08:07:28;;;;;;;2.00;1.27;;;10.40;99.90;;;;;;4246415;27;20211;-68
2022/11/02 08:09:29;;;;;;;4.90;1.23;;;10.30;99.90;;;;;;4230509;28;20186;-69
2022/11/02 08:11:30;;;;;;;5.13;3.00;;;10.40;99.90;;;;;;4229861;28;20641;-68
2022/11/02 08:13:30;;;;;;;5.77;2.03;;;10.60;99.90;;;;;;4245897;27;20174;-69
2022/11/02 08:15:31;;;;;;;5.07;1.67;;;10.70;99.90;;;;;;4229100;28;20190;-69
2022/11/02 08:17:32;;;;;;;6.23;1.60;;;11.00;99.90;;;;;;4230135;28;20189;-69
2022/11/02 08:19:32;;;;;;;4.63;1.50;;;11.20;99.90;;;;;;4230254;28;20671;-69
2022/11/02 08:21:33;;;;;;;3.37;1.70;;;11.50;99.90;;;;;;4229539;28;20641;-70
2022/11/02 08:23:34;;;;;;;7.93;7.33;;;11.70;98.90;;;;;;4230022;28;20552;-69
2022/11/02 08:25:37;;;;;;;4.07;1.20;;;11.70;96.60;;;;;;4229959;28;20597;-69
2022/11/02 08:27:38;;;;;;;6.37;3.60;;;11.40;97.20;;;;;;4228868;28;20183;-70
2022/11/02 08:29:39;;;;;;;4.63;2.37;;;11.30;96.60;;;;;;4229929;28;20175;-70
2022/11/02 08:31:39;;;;;;;1.80;1.07;;;11.20;96.60;;;;;;4245113;27;20177;-69
2022/11/02 08:33:41;;;;;;;4.43;1.70;;;11.20;96.80;;;;;;4228968;28;20259;-70
2022/11/02 08:35:44;;;;;;;5.37;1.27;;;11.20;96.40;;;;;;4245553;27;20177;-69
2022/11/02 08:37:52;;;;;;;2.73;1.83;;;11.30;96.50;;;;;;4228703;28;20889;-69
2022/11/02 08:39:52;;;;;;;4.60;1.50;;;11.30;95.50;;;;;;4228335;28;20256;-69
2022/11/02 08:41:53;;;;;;;3.03;1.10;;;11.30;95.40;;;;;;4227868;28;20178;-69
2022/11/02 08:43:54;;;;;;;2.70;1.00;;;11.40;94.80;;;;;;4229823;28;20186;-69
2022/11/02 08:45:58;;;;;;;3.33;0.90;;;11.60;94.50;;;;;;4229384;28;20209;-69
2022/11/02 08:47:59;;;;;;;1.67;1.10;;;11.70;93.60;;;;;;4238835;28;20202;-70
2022/11/02 08:50:00;;;;;;;1.90;1.17;;;11.90;92.70;;;;;;4242944;28;20176;-69
2022/11/02 08:52:01;;;;;;;2.87;1.43;;;11.90;92.60;;;;;;4229751;28;20187;-70
2022/11/02 08:54:01;;;;;;;2.50;1.00;;;12.00;91.60;;;;;;4230210;28;20227;-70
2022/11/02 08:56:02;;;;;;;5.00;1.40;;;12.00;92.10;;;;;;4229679;28;20189;-70
2022/11/02 08:58:03;;;;;;;2.10;1.10;;;12.10;91.60;;;;;;4228487;28;20198;-70
2022/11/02 09:00:05;;;;;;;3.87;1.13;;;12.30;91.10;;;;;;4228408;28;20182;-69
2022/11/02 09:02:05;;;;;;;4.43;1.30;;;12.20;91.00;;;;;;4229120;28;20170;-69
2022/11/02 09:04:06;;;;;;;2.93;0.97;;;12.40;90.80;;;;;;4229880;28;20189;-70
2022/11/02 09:06:07;;;;;;;5.43;1.50;;;12.50;89.70;;;;;;4229848;28;20231;-70
2022/11/02 09:08:15;;;;;;;1.80;1.10;;;12.60;90.10;;;;;;4229565;28;20228;-69
2022/11/02 09:10:16;;;;;;;2.23;1.17;;;12.80;88.80;;;;;;4227835;28;20582;-71
2022/11/02 09:12:16;;;;;;;2.53;1.00;;;13.10;86.00;;;;;;4229536;28;20308;-69
2022/11/02 09:14:17;;;;;;;3.80;1.37;;;13.50;84.30;;;;;;4229599;28;20209;-70
2022/11/02 09:16:18;;;;;;;2.63;1.93;;;13.50;81.70;;;;;;4229593;28;20181;-70
2022/11/02 09:18:19;;;;;;;3.80;1.10;;;13.40;80.20;;;;;;4211314;28;20214;-70
2022/11/02 09:20:21;;;;;;;2.37;0.90;;;13.40;81.80;;;;;;4227616;28;20249;-70
2022/11/02 09:22:22;;;;;;;2.83;0.93;;;13.40;79.10;;;;;;4228172;28;20193;-69
2022/11/02 09:24:22;;;;;;;4.03;1.17;;;13.30;79.70;;;;;;4229120;28;20660;-71
2022/11/02 09:26:23;;;;;;;3.50;1.47;;;13.20;80.60;;;;;;4229166;28;20605;-70
2022/11/02 09:28:24;;;;;;;2.80;1.20;;;13.30;80.30;;;;;;4228055;28;20190;-69
2022/11/02 09:30:27;;;;;;;4.77;3.60;;;13.10;78.80;;;;;;4227451;28;20180;-71
2022/11/02 09:32:32;;;;;;;3.23;1.50;;;13.00;78.90;;;;;;4227783;28;20182;-69
2022/11/02 09:34:32;;;;;;;3.23;2.60;;;12.70;80.30;;;;;;4227292;28;20236;-71
2022/11/02 09:36:33;;;;;;;1.87;1.00;;;12.70;80.80;;;;;;4228212;28;20664;-69
2022/11/02 09:38:34;;;;;;;3.57;1.50;;;12.80;80.70;;;;;;4211103;28;20655;-69
2022/11/02 09:41:00;;;;;;;4.13;1.30;;;13.00;80.70;;;;;;4211535;28;20185;-73
2022/11/02 09:43:17;;;;;;;1.87;1.13;;;13.30;80.60;;;;;;4211078;28;20273;-70
2022/11/02 09:45:19;;;;;;;3.07;1.87;;;13.80;76.60;;;;;;4212241;28;20666;-70
2022/11/02 09:47:21;;;;;;;2.97;1.57;;;13.90;75.30;;;;;;4211055;28;20224;-69
2022/11/02 09:49:24;;;;;;;2.50;1.60;;;14.00;74.90;;;;;;4211476;28;20203;-70
2022/11/02 09:51:40;;;;;;;3.97;1.10;;;14.10;74.10;;;;;;4211791;28;20260;-71
2022/11/02 09:53:53;;;;;;;4.20;1.50;;;13.90;75.20;;;;;;4211084;28;20171;-69
2022/11/02 09:55:58;;;;;;;4.10;1.30;;;13.80;76.30;;;;;;4212095;28;20182;-70
2022/11/02 09:58:20;;;;;;;4.80;1.57;;;13.90;73.80;;;;;;4212144;28;20285;-69
2022/11/02 10:00:21;;;;;;;1.77;0.80;;;13.70;74.10;;;;;;4213762;28;20186;-70
2022/11/02 10:02:43;;;;;;;5.77;1.00;;;13.60;75.30;;;;;;4214341;28;20232;-70
2022/11/02 10:05:20;;;;;;;3.67;1.33;;;14.00;74.80;;;;;;4231033;28;20209;-70
2022/11/02 10:07:45;;;;;;;3.30;2.97;;;14.20;72.10;;;;;;4231115;28;20192;-70
2022/11/02 10:10:13;;;;;;;2.37;1.40;;;14.30;69.60;;;;;;4215533;28;20195;-70
2022/11/02 10:12:44;;;;;;;4.57;1.40;;;14.20;71.00;;;;;;4214132;28;20560;-70
2022/11/02 10:15:01;;;;;;;2.10;0.97;;;14.20;70.60;;;;;;4215486;28;20607;-70
2022/11/02 10:17:21;;;;;;;3.73;1.60;;;14.10;72.70;;;;;;4214093;28;20945;-70
2022/11/02 10:19:22;;;;;;;3.73;1.17;;;14.30;72.10;;;;;;4213958;28;20207;-70
2022/11/02 10:21:31;;;;;;;3.63;1.00;;;14.50;69.80;;;;;;4213301;28;20163;-70
2022/11/02 10:23:44;;;;;;;2.53;1.73;;;14.70;69.30;;;;;;4215319;28;20512;-70
2022/11/02 10:25:48;;;;;;;4.20;1.40;;;14.60;67.80;;;;;;4214011;28;20195;-70
2022/11/02 10:28:00;;;;;;;3.50;1.40;;;14.20;68.60;;;;;;4215370;28;20757;-70
2022/11/02 10:30:12;;;;;;;4.60;1.30;;;13.90;69.60;;;;;;4214390;28;20167;-70
2022/11/02 10:32:15;;;;;;;3.47;1.00;;;14.10;70.20;;;;;;4213917;28;20653;-69
2022/11/02 10:34:43;;;;;;;2.70;1.20;;;14.20;69.70;;;;;;4231950;28;20202;-70
2022/11/02 10:37:19;;;;;;;4.70;1.30;;;14.40;68.50;;;;;;4229303;28;20198;-70
2022/11/02 10:39:49;;;;;;;4.27;1.37;;;14.70;67.30;;;;;;4232162;28;20274;-69
2022/11/02 10:42:28;;;;;;;3.10;1.63;;;14.90;65.80;;;;;;4231082;28;20170;-70
2022/11/02 10:44:45;;;;;;;2.50;1.10;;;15.00;64.10;;;;;;4231445;28;20182;-69
2022/11/02 10:47:20;;;;;;;3.63;1.30;;;14.90;64.30;;;;;;4230564;28;20210;-69
2022/11/02 10:49:42;;;;;;;3.40;1.33;;;15.30;63.00;;;;;;4232809;28;20205;-70
2022/11/02 10:51:43;;;;;;;1.67;0.80;;;15.50;60.80;;;;;;4242765;28;20182;-69
2022/11/02 10:53:52;;;;;;;6.27;1.93;;;15.50;60.50;;;;;;4232179;28;20174;-70
2022/11/02 10:56:14;;;;;;;3.53;1.77;;;15.40;60.40;;;;;;4230712;28;20181;-70
2022/11/02 10:58:19;;;;;;;2.57;1.20;;;15.10;61.20;;;;;;4231912;28;20231;-71
2022/11/02 11:00:35;;;;;;;3.83;1.20;;;15.10;60.80;;;;;;4229971;28;20185;-70
2022/11/02 11:02:35;;;;;;;3.43;1.40;;;15.10;61.30;;;;;;4230384;28;20205;-70
2022/11/02 11:04:36;;;;;;;2.97;1.30;;;14.80;63.20;;;;;;4231649;28;20186;-70
2022/11/02 11:06:41;;;;;;;2.40;1.20;;;14.70;63.50;;;;;;4230186;28;20194;-70
2022/11/02 11:08:45;;;;;;;4.23;1.40;;;14.70;61.70;;;;;;4230064;28;20190;-71
2022/11/02 11:10:46;;;;;;;3.97;1.30;;;14.70;62.10;;;;;;4228752;28;20250;-71
2022/11/02 11:12:47;;;;;;;3.97;1.40;;;14.90;61.60;;;;;;4231556;28;20175;-71
2022/11/02 11:14:54;;;;;;;3.43;1.10;;;15.10;60.80;;;;;;4231363;28;20182;-70